createdAt,value
2018-01-22T01:47:11.659Z,4.18
2018-01-22T01:49:49.399Z,3.75
2018-01-22T01:52:24.008Z,3.90
2018-01-22T07:28:47.526Z,8.77
2018-01-22T07:31:15.893Z,7.85
2018-01-22T07:33:43.584Z,7.80
2018-01-22T07:36:11.937Z,8.50
2018-01-22T07:38:39.761Z,8.18
2018-01-22T07:41:07.374Z,7.57
2018-01-22T07:43:35.165Z,8.90
2018-01-22T07:46:05.002Z,9.10
2018-01-22T07:48:34.814Z,7.93
2018-01-22T07:51:02.520Z,7.90
2018-01-22T07:53:30.209Z,9.00
2018-01-22T07:55:57.980Z,8.18
2018-01-22T07:58:25.757Z,9.15
2018-01-22T08:00:53.441Z,8.80
2018-01-22T08:03:21.836Z,10.10
2018-01-22T08:05:49.527Z,8.25
2018-01-22T08:08:17.349Z,9.00
2018-01-22T08:10:45.128Z,8.02
2018-01-22T08:13:12.848Z,9.18
2018-01-22T08:15:40.653Z,8.20
2018-01-22T08:20:50.351Z,9.27
2018-01-22T08:23:21.146Z,9.18
2018-01-22T08:25:50.744Z,9.18
2018-01-22T08:28:18.408Z,9.43
2018-01-22T08:30:46.350Z,8.52
2018-01-22T08:33:14.145Z,10.15
2018-01-22T08:35:41.945Z,9.10
2018-01-22T08:38:10.579Z,8.82
2018-01-22T08:40:38.248Z,8.80
2018-01-22T08:43:06.738Z,10.05
2018-01-22T08:45:35.100Z,9.30
2018-01-22T08:48:02.965Z,10.00
2018-01-22T08:50:33.910Z,9.77
2018-01-22T08:53:02.141Z,8.75
2018-01-22T08:55:30.683Z,8.48
2018-01-22T08:57:58.294Z,10.57
2018-01-22T09:00:27.131Z,10.15
2018-01-22T09:02:56.557Z,9.95
2018-01-22T09:05:24.595Z,10.25
2018-01-22T09:07:53.536Z,10.10
2018-01-22T09:10:22.028Z,9.18
2018-01-22T09:12:49.692Z,11.32
2018-01-22T09:15:17.801Z,11.63
2018-01-22T09:17:46.198Z,10.27
2018-01-22T09:20:14.221Z,9.90
2018-01-22T09:22:42.409Z,10.82
2018-01-22T09:25:10.093Z,10.55
2018-01-22T09:27:37.712Z,10.02
2018-01-22T09:30:09.068Z,8.63
2018-01-22T09:32:37.005Z,9.70
2018-01-22T09:35:06.972Z,8.98
2018-01-22T09:37:35.295Z,9.13
2018-01-22T09:40:03.684Z,8.10
2018-01-22T09:42:32.315Z,9.02
2018-01-22T09:45:00.136Z,9.00
2018-01-22T09:47:29.002Z,8.95
2018-01-22T09:49:56.620Z,9.50
2018-01-22T09:52:25.172Z,9.27
2018-01-22T09:54:53.322Z,10.32
2018-01-22T09:57:20.979Z,9.70
2018-01-22T09:59:49.906Z,9.40
2018-01-22T10:02:17.703Z,11.15
2018-01-22T10:04:45.457Z,9.77
2018-01-22T10:07:13.474Z,8.52
2018-01-22T10:09:41.292Z,10.05
2018-01-22T10:12:08.975Z,9.50
2018-01-22T10:14:37.726Z,8.48
2018-01-22T10:17:06.280Z,8.60
2018-01-22T10:19:35.020Z,9.07
2018-01-22T10:22:03.197Z,9.50
2018-01-22T10:24:31.970Z,8.95
2018-01-22T10:27:00.209Z,10.45
2018-01-22T10:29:27.992Z,8.75
2018-01-22T10:31:56.504Z,9.15
2018-01-22T10:34:25.289Z,9.10
2018-01-22T10:36:54.149Z,10.10
2018-01-22T10:39:22.725Z,9.65
2018-01-22T10:41:50.464Z,9.55
2018-01-22T10:44:18.166Z,10.00
2018-01-22T10:46:46.306Z,12.60
2018-01-22T10:49:14.337Z,10.80
2018-01-22T10:51:44.258Z,9.85
2018-01-22T10:54:13.503Z,8.80
2018-01-22T10:56:42.836Z,10.23
2018-01-22T10:59:10.494Z,9.27
2018-01-22T11:01:39.154Z,10.57
2018-01-22T11:04:06.922Z,10.25
2018-01-22T11:06:35.279Z,12.23
2018-01-22T11:09:04.666Z,11.07
2018-01-22T11:11:32.556Z,10.68
2018-01-22T11:14:01.204Z,9.23
2018-01-22T11:16:29.970Z,8.00
2018-01-22T11:18:57.763Z,11.38
2018-01-22T11:21:25.595Z,10.45
2018-01-22T11:23:53.579Z,11.18
2018-01-22T11:26:21.292Z,11.02
2018-01-22T11:28:49.002Z,9.95
2018-01-22T11:31:16.821Z,11.70
2018-01-22T11:33:44.450Z,11.57
2018-01-22T11:36:12.358Z,11.07
2018-01-22T11:38:40.230Z,11.70
2018-01-22T11:41:07.939Z,12.23
2018-01-22T11:43:36.165Z,10.57
2018-01-22T11:46:04.084Z,11.40
2018-01-22T11:48:32.376Z,11.88
2018-01-22T11:50:59.966Z,10.15
2018-01-22T11:53:27.697Z,11.00
2018-01-22T11:55:55.956Z,11.90
2018-01-22T11:58:25.141Z,10.95
2018-01-22T12:00:54.426Z,11.27
2018-01-22T12:03:22.166Z,11.20
2018-01-22T12:05:50.262Z,11.18
2018-01-22T12:08:18.614Z,10.55
2018-01-22T12:14:50.017Z,10.73
2018-01-22T12:17:17.722Z,11.88
2018-01-22T12:19:45.379Z,11.90
2018-01-22T12:22:13.154Z,10.95
2018-01-22T12:24:40.776Z,12.55
2018-01-22T12:27:08.628Z,11.85
2018-01-22T12:29:36.430Z,12.55
2018-01-22T12:32:04.253Z,11.40
2018-01-22T12:34:31.930Z,12.15
2018-01-22T12:36:59.542Z,13.52
2018-01-22T12:39:27.402Z,11.68
2018-01-22T12:41:57.763Z,12.00
2018-01-22T12:44:25.590Z,13.15
2018-01-22T12:46:53.306Z,10.60
2018-01-22T12:49:21.307Z,11.65
2018-01-22T12:51:51.791Z,12.88
2018-01-22T12:54:20.142Z,11.85
2018-01-22T12:56:47.754Z,12.45
2018-01-22T12:59:21.563Z,12.63
2018-01-22T13:01:49.350Z,13.40
2018-01-22T13:04:16.980Z,11.75
2018-01-22T13:06:44.852Z,11.30
2018-01-22T13:09:12.578Z,11.63
2018-01-22T13:11:41.381Z,11.55
2018-01-22T13:14:09.018Z,12.55
2018-01-22T13:16:36.848Z,13.30
2018-01-22T13:19:04.565Z,12.60
2018-01-22T13:21:32.451Z,13.25
2018-01-22T13:24:00.271Z,12.30
2018-01-22T13:26:27.936Z,12.25
2018-01-22T13:28:55.549Z,12.50
2018-01-22T13:31:23.402Z,11.38
2018-01-22T13:33:51.121Z,13.48
2018-01-22T13:36:19.000Z,13.20
2018-01-22T13:38:46.936Z,11.88
2018-01-22T13:41:15.429Z,11.95
2018-01-22T13:43:43.021Z,11.77
2018-01-22T13:46:10.800Z,13.45
2018-01-22T13:48:38.494Z,12.27
2018-01-22T13:51:06.093Z,11.95
2018-01-22T13:53:33.796Z,12.30
2018-01-22T13:56:01.444Z,14.30
2018-01-22T13:58:29.082Z,12.65
2018-01-22T14:00:56.989Z,13.43
2018-01-22T14:03:24.720Z,14.15
2018-01-22T14:05:52.565Z,13.40
2018-01-22T14:08:20.320Z,12.93
2018-01-22T14:10:48.000Z,14.20
2018-01-22T14:13:15.647Z,13.38
2018-01-22T14:15:43.452Z,12.93
2018-01-22T14:18:11.989Z,13.55
2018-01-22T14:20:40.490Z,12.25
2018-01-22T14:23:08.857Z,14.23
2018-01-22T14:25:36.719Z,14.38
2018-01-22T14:28:04.666Z,13.25
2018-01-22T14:30:33.711Z,14.90
2018-01-22T14:33:01.878Z,15.57
2018-01-22T14:35:30.174Z,14.18
2018-01-22T14:37:59.750Z,14.20
2018-01-22T14:40:38.534Z,12.88
2018-01-22T14:46:37.659Z,13.35
2018-01-22T14:49:08.858Z,12.73
2018-01-22T14:51:37.714Z,12.90
2018-01-22T14:54:06.631Z,12.65
2018-01-22T14:56:34.363Z,12.70
2018-01-22T14:59:02.776Z,13.77
2018-01-22T15:01:32.041Z,13.00
2018-01-22T15:03:59.852Z,13.85
2018-01-22T15:10:05.270Z,13.57
2018-01-22T15:12:32.937Z,13.93
2018-01-22T15:15:00.681Z,15.05
2018-01-22T15:17:28.449Z,15.35
2018-01-22T15:19:56.439Z,13.70
2018-01-22T15:22:25.401Z,13.57
2018-01-22T15:32:04.637Z,15.25
2018-01-22T15:34:34.147Z,14.73
2018-01-22T15:37:02.586Z,13.10
2018-01-22T15:46:52.593Z,15.57
2018-01-22T15:49:20.440Z,15.90
2018-01-22T15:51:49.657Z,15.07
2018-01-22T15:54:18.666Z,17.48
2018-01-22T15:56:47.788Z,16.73
2018-01-22T15:59:17.382Z,15.68
2018-01-22T16:01:45.565Z,15.35
2018-01-22T16:04:18.131Z,15.57
2018-01-22T16:06:56.882Z,16.55
2018-01-22T16:09:24.504Z,17.05
2018-01-22T16:11:52.268Z,16.83
2018-01-22T16:14:21.684Z,18.35
2018-01-22T16:16:49.542Z,19.10
2018-01-22T16:19:17.171Z,17.23
2018-01-22T16:21:44.832Z,16.02
2018-01-22T16:24:12.613Z,30.35
2018-01-22T16:26:41.048Z,18.45
2018-01-22T16:29:09.856Z,18.25
2018-01-22T16:31:37.568Z,21.60
2018-01-22T16:34:05.116Z,16.98
2018-01-22T16:36:32.663Z,17.27
2018-01-22T16:39:00.345Z,18.25
2018-01-22T16:41:28.104Z,17.65
2018-01-22T16:43:55.644Z,17.30
2018-01-22T16:46:24.302Z,17.10
2018-01-22T16:48:52.508Z,16.87
2018-01-22T16:51:20.394Z,16.90
2018-01-22T16:53:48.319Z,16.48
2018-01-22T16:56:16.028Z,15.20
2018-01-22T16:58:45.697Z,17.87
2018-01-22T17:01:13.601Z,17.37
2018-01-22T17:03:41.456Z,15.23
2018-01-22T17:06:09.770Z,17.65
2018-01-22T17:08:37.638Z,17.92
2018-01-22T17:11:05.961Z,17.83
2018-01-22T17:13:38.809Z,18.08
2018-01-22T17:16:18.504Z,15.88
2018-01-22T17:18:46.318Z,20.40
2018-01-22T17:21:13.909Z,18.65
2018-01-22T17:23:41.788Z,18.67
2018-01-22T17:26:09.631Z,18.87
2018-01-22T17:28:37.193Z,17.58
2018-01-22T17:31:07.722Z,19.10
2018-01-22T17:33:35.790Z,19.05
2018-01-22T17:36:04.203Z,20.98
2018-01-22T17:38:32.233Z,21.05
2018-01-22T17:41:01.790Z,21.00
2018-01-22T17:43:29.799Z,16.92
2018-01-22T17:45:58.573Z,19.02
2018-01-22T17:48:26.462Z,17.23
2018-01-22T17:50:54.900Z,17.25
2018-01-22T17:53:23.128Z,17.40
2018-01-22T17:55:51.649Z,18.50
2018-01-22T17:58:20.722Z,17.25
2018-01-22T18:00:51.625Z,17.05
2018-01-22T18:03:21.334Z,16.48
2018-01-22T18:05:49.926Z,16.60
2018-01-22T18:08:39.487Z,16.58
2018-01-22T18:11:26.409Z,15.52
2018-01-22T18:13:54.253Z,16.00
2018-01-22T18:16:21.898Z,16.83
2018-01-22T18:18:49.677Z,17.55
2018-01-22T18:21:19.318Z,16.83
2018-01-22T18:23:47.046Z,19.35
2018-01-22T18:26:18.327Z,16.92
2018-01-22T18:28:46.093Z,20.08
2018-01-22T18:31:14.813Z,18.15
2018-01-22T18:33:45.810Z,18.33
2018-01-22T18:36:13.609Z,18.50
2018-01-22T18:38:41.857Z,17.90
2018-01-22T18:44:54.508Z,19.83
2018-01-22T18:50:52.910Z,17.05
2018-01-22T18:53:26.912Z,17.23
2018-01-22T18:59:48.942Z,17.70
2018-01-22T19:02:17.060Z,17.17
2018-01-22T19:05:17.256Z,16.42
2018-01-22T19:07:45.080Z,19.35
2018-01-22T19:10:12.839Z,15.82
2018-01-22T19:12:40.419Z,17.05
2018-01-22T19:15:08.293Z,17.90
2018-01-22T19:17:43.147Z,19.52
2018-01-22T19:20:11.446Z,18.58
2018-01-22T19:22:44.325Z,17.67
2018-01-22T19:25:12.057Z,18.40
2018-01-22T19:27:39.675Z,17.87
2018-01-22T19:30:09.185Z,18.30
2018-01-22T19:32:37.986Z,18.05
2018-01-22T19:35:05.650Z,19.67
2018-01-22T19:37:34.045Z,20.92
2018-01-22T19:40:01.639Z,17.85
2018-01-22T19:42:31.137Z,18.00
2018-01-22T19:44:59.563Z,16.85
2018-01-22T19:47:28.657Z,19.73
2018-01-22T19:50:08.180Z,19.75
2018-01-22T19:52:38.066Z,18.55
2018-01-22T19:55:06.292Z,19.55
2018-01-22T19:57:34.098Z,18.48
2018-01-22T20:00:05.743Z,19.15
2018-01-22T20:02:44.081Z,19.37
2018-01-22T20:05:11.890Z,17.80
2018-01-22T20:07:39.604Z,19.17
2018-01-22T20:10:07.202Z,21.80
2018-01-22T20:12:35.009Z,20.65
2018-01-22T20:15:02.982Z,19.83
2018-01-22T20:17:30.666Z,21.27
2018-01-22T20:19:58.456Z,19.40
2018-01-22T20:22:26.069Z,19.30
2018-01-22T20:24:53.749Z,19.23
2018-01-22T20:27:23.651Z,22.05
2018-01-22T20:29:52.711Z,19.20
2018-01-22T20:32:20.463Z,21.25
2018-01-22T20:34:48.287Z,19.58
2018-01-22T20:37:20.680Z,18.23
2018-01-22T20:39:48.427Z,19.30
2018-01-22T20:42:17.000Z,18.50
2018-01-22T20:44:45.636Z,17.58
2018-01-22T23:39:04.918Z,17.70
2018-01-22T23:41:33.096Z,17.17
2018-01-22T23:44:00.629Z,16.12
2018-01-22T23:46:28.375Z,16.37
2018-01-22T23:48:58.927Z,16.92
2018-01-22T23:51:26.462Z,17.20
2018-01-22T23:53:54.214Z,16.65
2018-01-22T23:56:22.827Z,16.52
2018-01-22T23:58:51.171Z,16.45
